createdAt,value
2022-10-21T00:02:13.603Z,17.10
2022-10-21T00:04:41.317Z,18.92
2022-10-21T00:07:09.209Z,16.67
2022-10-21T00:09:36.948Z,16.10
2022-10-21T00:12:04.921Z,22.98
2022-10-21T00:14:32.789Z,16.80
2022-10-21T00:17:01.933Z,18.63
2022-10-21T00:19:29.668Z,18.30
2022-10-21T00:21:57.441Z,17.27
2022-10-21T00:24:25.197Z,17.05
2022-10-21T00:26:54.656Z,15.25
2022-10-21T00:31:55.177Z,15.15
2022-10-21T00:34:28.481Z,16.17
2022-10-21T00:36:58.569Z,19.10
2022-10-21T00:39:26.309Z,18.38
2022-10-21T00:41:54.027Z,12.55
2022-10-21T00:44:21.772Z,17.00
2022-10-21T00:46:52.410Z,14.15
2022-10-21T00:49:25.811Z,12.52
2022-10-21T00:51:55.760Z,15.40
2022-10-21T00:54:24.869Z,14.52
2022-10-21T00:56:53.791Z,20.20
2022-10-21T00:59:22.288Z,12.68
2022-10-21T01:01:50.261Z,15.75
2022-10-21T01:04:18.036Z,12.27
2022-10-21T01:06:47.474Z,14.40
2022-10-21T01:09:15.900Z,14.32
2022-10-21T01:11:46.924Z,12.45
2022-10-21T01:14:24.514Z,13.27
2022-10-21T01:17:00.525Z,11.10
2022-10-21T01:19:53.982Z,12.65
2022-10-21T01:22:39.365Z,13.32
2022-10-21T01:25:26.423Z,17.27
2022-10-21T01:27:58.918Z,14.65
2022-10-21T01:30:46.250Z,15.63
2022-10-21T01:33:26.148Z,16.40
2022-10-21T01:35:57.246Z,13.50
2022-10-21T01:38:30.647Z,14.02
2022-10-21T01:41:03.023Z,17.08
2022-10-21T01:43:36.656Z,12.15
2022-10-21T01:46:08.496Z,14.82
2022-10-21T01:48:40.536Z,13.45
2022-10-21T01:51:10.179Z,17.95
2022-10-21T01:53:41.819Z,16.13
2022-10-21T01:56:10.629Z,13.07
2022-10-21T01:58:40.435Z,14.07
2022-10-21T02:01:10.469Z,15.02
2022-10-21T02:03:40.301Z,13.18
2022-10-21T02:06:08.138Z,15.95
2022-10-21T02:08:36.122Z,14.52
2022-10-21T02:11:07.362Z,11.98
2022-10-21T02:13:38.559Z,12.73
2022-10-21T02:16:11.657Z,11.57
2022-10-21T02:18:39.446Z,14.98
2022-10-21T02:21:10.047Z,13.48
2022-10-21T02:23:43.729Z,12.57
2022-10-21T02:26:11.701Z,15.07
2022-10-21T02:31:25.097Z,10.48
2022-10-21T02:33:59.124Z,14.25
2022-10-21T02:36:32.099Z,15.25
2022-10-21T02:39:04.761Z,13.50
2022-10-21T02:41:34.433Z,10.40
2022-10-21T02:44:03.653Z,6.75
2022-10-21T02:46:36.992Z,12.27
2022-10-21T02:49:04.986Z,8.52
2022-10-21T02:51:33.008Z,9.07
2022-10-21T02:54:00.919Z,7.90
2022-10-21T02:58:57.346Z,7.97
2022-10-21T03:01:25.218Z,6.50
2022-10-21T03:03:54.370Z,8.13
2022-10-21T03:06:22.160Z,6.32
2022-10-21T03:08:49.948Z,9.68
2022-10-21T03:11:17.718Z,7.75
2022-10-21T03:13:45.506Z,7.93
2022-10-21T03:16:13.222Z,5.75
2022-10-21T03:18:41.015Z,8.68
2022-10-21T03:21:10.138Z,8.88
2022-10-21T03:23:37.849Z,7.25
2022-10-21T03:26:05.710Z,10.02
2022-10-21T03:28:33.440Z,6.88
2022-10-21T03:31:01.226Z,4.30
2022-10-21T03:33:28.958Z,7.47
2022-10-21T03:35:56.702Z,4.45
2022-10-21T03:38:25.889Z,4.47
2022-10-21T03:40:53.647Z,6.57
2022-10-21T03:43:21.390Z,7.85
2022-10-21T03:45:49.316Z,5.97
2022-10-21T03:48:17.092Z,6.72
2022-10-21T03:50:44.881Z,7.60
2022-10-21T03:53:24.265Z,7.28
2022-10-21T03:56:01.783Z,7.80
2022-10-21T03:58:29.524Z,6.20
2022-10-21T04:00:57.273Z,5.28
2022-10-21T04:03:25.057Z,6.50
2022-10-21T04:05:52.936Z,5.55
2022-10-21T04:08:20.643Z,3.65
2022-10-21T04:10:48.785Z,10.40
2022-10-21T04:13:17.939Z,9.20
2022-10-21T04:15:45.670Z,4.82
2022-10-21T04:18:13.413Z,4.97
2022-10-21T04:20:41.165Z,6.68
2022-10-21T04:23:08.868Z,4.95
2022-10-21T04:25:36.616Z,3.13
2022-10-21T04:28:04.504Z,5.25
2022-10-21T04:30:33.594Z,6.63
2022-10-21T04:33:01.312Z,9.15
2022-10-21T04:35:29.119Z,4.55
2022-10-21T04:37:57.250Z,4.78
2022-10-21T04:40:25.103Z,4.88
2022-10-21T04:42:52.824Z,6.93
2022-10-21T04:45:20.538Z,11.10
2022-10-21T04:47:49.661Z,6.43
2022-10-21T04:50:17.588Z,6.35
2022-10-21T04:52:46.747Z,2.85
2022-10-21T04:55:14.507Z,3.83
2022-10-21T04:57:42.777Z,4.35
2022-10-21T05:00:12.016Z,5.53
2022-10-21T05:02:39.947Z,5.05
2022-10-21T05:05:10.247Z,4.43
2022-10-21T05:07:37.989Z,6.00
2022-10-21T05:10:06.778Z,4.13
2022-10-21T05:15:03.394Z,5.35
2022-10-21T05:17:31.165Z,6.15
2022-10-21T05:19:58.909Z,5.43
2022-10-21T05:22:28.063Z,7.30
2022-10-21T05:24:55.791Z,4.10
2022-10-21T05:27:23.601Z,4.00
2022-10-21T05:29:51.380Z,4.63
2022-10-21T05:32:19.101Z,3.50
2022-10-21T05:34:46.828Z,5.65
2022-10-21T05:37:14.547Z,3.58
2022-10-21T05:39:43.679Z,7.40
2022-10-21T05:42:11.504Z,4.65
2022-10-21T05:44:39.231Z,2.72
2022-10-21T05:47:06.994Z,4.85
2022-10-21T05:49:34.709Z,3.30
2022-10-21T05:52:03.041Z,3.42
2022-10-21T05:54:30.840Z,3.53
2022-10-21T05:56:59.961Z,3.80
2022-10-21T05:59:27.922Z,6.50
2022-10-21T06:01:55.649Z,3.55
2022-10-21T06:04:23.446Z,4.82
2022-10-21T06:06:51.200Z,5.72
2022-10-21T06:09:18.940Z,5.07
2022-10-21T06:11:46.683Z,5.75
2022-10-21T06:14:15.784Z,5.63
2022-10-21T06:16:43.695Z,2.92
2022-10-21T06:19:11.480Z,3.08
2022-10-21T06:21:39.244Z,9.95
2022-10-21T06:24:07.217Z,3.60
2022-10-21T06:26:36.921Z,6.30
2022-10-21T06:29:05.062Z,3.85
2022-10-21T06:31:34.286Z,5.07
2022-10-21T06:34:02.095Z,6.00
2022-10-21T06:36:30.503Z,6.88
2022-10-21T06:38:58.250Z,5.88
2022-10-21T06:41:26.059Z,4.03
2022-10-21T06:43:53.941Z,9.25
2022-10-21T06:46:21.719Z,5.70
2022-10-21T06:48:50.807Z,3.85
2022-10-21T06:51:20.889Z,3.17
2022-10-21T06:53:52.662Z,8.95
2022-10-21T06:56:23.047Z,5.40
2022-10-21T06:58:51.475Z,7.68
2022-10-21T07:01:34.427Z,6.93
2022-10-21T07:04:10.696Z,7.00
2022-10-21T07:06:38.754Z,7.05
2022-10-21T07:09:08.549Z,4.97
2022-10-21T07:11:36.697Z,4.68
2022-10-21T07:14:05.066Z,6.45
2022-10-21T07:16:34.620Z,5.10
2022-10-21T07:19:02.356Z,6.55
2022-10-21T07:21:32.535Z,7.38
2022-10-21T07:24:01.306Z,6.70
2022-10-21T07:26:30.649Z,3.97
2022-10-21T07:29:00.400Z,6.97
2022-10-21T07:31:28.973Z,6.63
2022-10-21T07:33:56.994Z,5.47
2022-10-21T07:36:27.101Z,4.97
2022-10-21T07:38:59.331Z,6.32
2022-10-21T07:41:29.428Z,5.07
2022-10-21T07:43:57.217Z,8.73
2022-10-21T07:46:25.068Z,8.77
2022-10-21T07:48:52.936Z,4.78
2022-10-21T07:51:25.713Z,5.10
2022-10-21T07:53:59.245Z,3.13
2022-10-21T07:56:28.952Z,5.55
2022-10-21T07:58:57.657Z,4.00
2022-10-21T08:01:25.801Z,6.68
2022-10-21T08:03:54.857Z,6.07
2022-10-21T08:06:23.792Z,5.47
2022-10-21T08:08:51.642Z,3.85
2022-10-21T08:11:24.944Z,4.60
2022-10-21T08:13:53.112Z,4.60
2022-10-21T08:16:20.917Z,5.63
2022-10-21T08:18:49.338Z,4.93
2022-10-21T08:21:17.243Z,8.15
2022-10-21T08:23:45.513Z,5.43
2022-10-21T08:26:14.558Z,6.40
2022-10-21T08:28:44.088Z,9.38
2022-10-21T08:31:13.255Z,3.88
2022-10-21T08:33:41.086Z,3.33
2022-10-21T08:36:09.678Z,4.85
2022-10-21T08:38:37.611Z,5.75
2022-10-21T08:41:12.040Z,4.63
2022-10-21T08:43:40.501Z,6.25
2022-10-21T08:46:12.728Z,4.97
2022-10-21T08:48:42.896Z,5.68
2022-10-21T08:51:16.319Z,6.07
2022-10-21T08:53:48.088Z,5.07
2022-10-21T08:56:19.853Z,5.68
2022-10-21T08:58:48.949Z,8.23
2022-10-21T09:01:22.827Z,7.78
2022-10-21T09:03:54.595Z,8.57
2022-10-21T09:06:25.283Z,6.35
2022-10-21T09:09:13.157Z,6.30
2022-10-21T09:11:52.025Z,4.97
2022-10-21T09:14:44.366Z,8.05
2022-10-21T09:17:38.142Z,10.45
2022-10-21T09:20:15.830Z,5.45
2022-10-21T09:22:50.000Z,9.10
2022-10-21T09:25:21.689Z,11.73
2022-10-21T09:27:57.474Z,6.80
2022-10-21T09:30:25.870Z,7.82
2022-10-21T09:32:58.312Z,10.10
2022-10-21T09:35:32.843Z,9.43
2022-10-21T09:38:03.918Z,9.93
2022-10-21T09:40:33.942Z,7.57
2022-10-21T09:43:02.404Z,7.75
2022-10-21T09:45:33.901Z,9.15
2022-10-21T09:48:05.904Z,7.70
2022-10-21T09:50:35.441Z,5.05
2022-10-21T09:53:06.937Z,9.82
2022-10-21T09:55:34.779Z,7.45
2022-10-21T09:58:04.619Z,7.32
2022-10-21T10:00:47.117Z,6.00
2022-10-21T10:03:30.592Z,6.85
2022-10-21T10:05:58.581Z,10.57
2022-10-21T10:08:38.333Z,12.25
2022-10-21T10:11:18.062Z,11.82
2022-10-21T10:13:47.223Z,8.10
2022-10-21T10:16:22.878Z,10.45
2022-10-21T10:18:53.895Z,11.35
2022-10-21T10:21:22.575Z,8.05
2022-10-21T10:23:52.534Z,10.40
2022-10-21T10:26:27.712Z,10.15
2022-10-21T10:28:58.920Z,7.80
2022-10-21T10:31:33.008Z,11.27
2022-10-21T10:34:04.978Z,9.23
2022-10-21T10:36:36.095Z,6.32
2022-10-21T10:39:07.601Z,5.82
2022-10-21T10:41:38.421Z,6.88
2022-10-21T10:44:12.057Z,8.57
2022-10-21T10:46:40.243Z,4.57
2022-10-21T10:49:22.413Z,6.45
2022-10-21T10:52:05.744Z,5.03
2022-10-21T10:54:33.628Z,5.07
2022-10-21T10:57:04.502Z,4.93
2022-10-21T10:59:36.359Z,4.18
2022-10-21T11:02:17.397Z,7.90
2022-10-21T11:05:02.382Z,7.10
2022-10-21T11:07:34.438Z,6.40
2022-10-21T11:10:04.883Z,5.45
2022-10-21T11:12:33.200Z,7.53
2022-10-21T11:15:01.410Z,13.55
2022-10-21T11:17:37.358Z,5.43
2022-10-21T11:20:12.412Z,6.97
2022-10-21T11:22:43.928Z,6.57
2022-10-21T11:25:20.607Z,4.20
2022-10-21T11:28:07.473Z,7.18
2022-10-21T11:30:43.332Z,6.32
2022-10-21T11:33:18.507Z,9.43
2022-10-21T11:35:57.422Z,7.55
2022-10-21T11:38:42.033Z,8.48
2022-10-21T11:41:20.703Z,9.18
2022-10-21T11:43:56.549Z,6.95
2022-10-21T11:46:30.468Z,6.47
2022-10-21T11:49:24.738Z,4.85
2022-10-21T11:51:58.432Z,4.80
2022-10-21T11:54:37.994Z,4.13
2022-10-21T11:57:12.665Z,5.18
2022-10-21T11:59:56.657Z,3.13
2022-10-21T12:02:40.295Z,1.50
2022-10-21T12:05:16.495Z,3.33
2022-10-21T12:08:06.231Z,4.50
2022-10-21T12:10:36.752Z,4.75
2022-10-21T12:13:08.317Z,3.50
2022-10-21T12:15:41.194Z,3.58
2022-10-21T12:18:15.132Z,4.32
2022-10-21T12:20:43.454Z,2.38
2022-10-21T12:23:15.190Z,5.30
2022-10-21T12:25:46.541Z,4.97
2022-10-21T12:28:18.337Z,2.50
2022-10-21T12:30:50.805Z,3.10
2022-10-21T12:33:25.286Z,2.25
2022-10-21T12:35:55.243Z,4.13
2022-10-21T12:38:27.354Z,2.42
2022-10-21T12:41:26.755Z,4.60
2022-10-21T12:43:55.566Z,4.20
2022-10-21T12:46:26.137Z,5.38
2022-10-21T12:48:53.992Z,3.63
2022-10-21T12:51:24.859Z,3.92
2022-10-21T12:53:56.639Z,3.50
2022-10-21T12:56:30.105Z,3.58
2022-10-21T12:59:01.643Z,5.38
2022-10-21T13:02:09.198Z,2.08
2022-10-21T13:04:48.695Z,5.43
2022-10-21T13:07:34.609Z,6.50
2022-10-21T13:10:16.781Z,3.05
2022-10-21T13:12:47.447Z,2.53
2022-10-21T13:15:46.797Z,3.13
2022-10-21T13:18:53.117Z,1.80
2022-10-21T13:21:24.821Z,2.55
2022-10-21T13:23:53.069Z,3.78
2022-10-21T13:26:25.241Z,3.65
2022-10-21T13:29:02.464Z,5.78
2022-10-21T13:31:30.692Z,3.17
2022-10-21T13:33:58.821Z,4.20
2022-10-21T13:39:22.493Z,3.97
2022-10-21T13:42:00.556Z,3.65
2022-10-21T13:44:31.497Z,3.80
2022-10-21T13:46:59.526Z,4.35
2022-10-21T13:49:29.116Z,2.28
2022-10-21T13:51:57.726Z,2.38
2022-10-21T13:54:25.879Z,2.38
2022-10-21T13:56:53.558Z,2.75
2022-10-21T13:59:28.875Z,4.85
2022-10-21T14:01:58.029Z,2.40
2022-10-21T14:04:27.665Z,3.97
2022-10-21T14:06:58.126Z,4.97
2022-10-21T14:09:28.657Z,2.53
2022-10-21T14:12:00.059Z,3.45
2022-10-21T14:14:30.344Z,4.32
2022-10-21T14:17:00.477Z,1.73
2022-10-21T14:19:32.208Z,5.82
2022-10-21T14:22:01.160Z,5.65
2022-10-21T14:24:33.224Z,7.95
2022-10-21T14:27:01.673Z,2.53
2022-10-21T14:29:33.895Z,3.72
2022-10-21T14:32:02.377Z,4.55
2022-10-21T14:34:32.553Z,4.72
2022-10-21T14:37:01.894Z,1.88
2022-10-21T14:39:30.622Z,5.85
2022-10-21T14:42:03.445Z,2.40
2022-10-21T14:44:32.834Z,3.20
2022-10-21T14:47:00.860Z,4.10
2022-10-21T14:49:30.605Z,2.25
2022-10-21T14:52:00.926Z,2.40
2022-10-21T14:54:39.291Z,2.10
2022-10-21T14:57:07.142Z,3.47
2022-10-21T14:59:39.241Z,6.50
2022-10-21T15:02:16.293Z,3.70
2022-10-21T15:04:51.586Z,4.57
2022-10-21T15:10:18.011Z,3.90
2022-10-21T15:12:47.390Z,2.45
2022-10-21T15:15:44.511Z,1.13
2022-10-21T15:18:15.672Z,6.07
2022-10-21T15:20:51.681Z,4.32
2022-10-21T15:23:20.354Z,2.33
2022-10-21T15:25:48.384Z,2.70
2022-10-21T15:28:19.000Z,3.78
2022-10-21T15:30:48.181Z,7.25
2022-10-21T15:33:15.949Z,3.55
2022-10-21T15:35:43.748Z,1.60
2022-10-21T15:38:11.515Z,1.55
2022-10-21T15:40:39.296Z,4.40
2022-10-21T15:43:07.042Z,4.50
2022-10-21T15:45:34.954Z,5.60
2022-10-21T15:48:04.139Z,3.53
2022-10-21T15:50:32.021Z,4.15
2022-10-21T15:52:59.783Z,6.47
2022-10-21T15:55:27.539Z,5.07
2022-10-21T15:57:55.274Z,3.70
2022-10-21T16:00:24.236Z,8.00
2022-10-21T16:02:52.457Z,3.90
2022-10-21T16:05:22.327Z,6.43
2022-10-21T16:07:51.175Z,3.33
2022-10-21T16:10:21.201Z,2.55
2022-10-21T16:12:49.634Z,2.92
2022-10-21T16:15:18.857Z,1.85
2022-10-21T16:17:48.772Z,3.03
2022-10-21T16:20:18.551Z,3.47
2022-10-21T16:22:47.797Z,4.75
2022-10-21T16:25:15.957Z,2.90
2022-10-21T16:27:55.093Z,5.70
2022-10-21T16:30:25.754Z,3.60
2022-10-21T16:32:53.626Z,3.50
2022-10-21T16:35:22.493Z,3.35
2022-10-21T16:37:51.795Z,4.47
2022-10-21T16:40:21.098Z,3.72
2022-10-21T16:42:49.172Z,8.80
2022-10-21T16:45:18.110Z,2.67
2022-10-21T16:47:56.523Z,10.35
2022-10-21T16:50:26.454Z,6.88
2022-10-21T16:52:55.551Z,5.03
2022-10-21T16:55:23.255Z,6.47
2022-10-21T16:57:51.032Z,9.05
2022-10-21T17:00:19.140Z,8.32
2022-10-21T17:02:49.273Z,2.85
2022-10-21T17:05:17.130Z,2.92
2022-10-21T17:07:44.898Z,6.88
2022-10-21T17:10:14.009Z,7.57
2022-10-21T17:12:41.839Z,5.85
2022-10-21T17:15:12.226Z,6.55
2022-10-21T17:17:40.106Z,10.18
2022-10-21T17:20:09.076Z,8.73
2022-10-21T17:22:36.765Z,4.65
2022-10-21T17:25:04.886Z,6.78
2022-10-21T17:27:34.007Z,5.05
2022-10-21T17:30:01.797Z,5.88
2022-10-21T17:32:29.555Z,6.47
2022-10-21T17:34:58.391Z,4.50
2022-10-21T17:37:26.144Z,7.93
2022-10-21T17:39:53.861Z,9.65
2022-10-21T17:42:21.861Z,5.10
2022-10-21T17:44:52.639Z,4.35
2022-10-21T17:47:20.409Z,4.28
2022-10-21T17:49:48.153Z,5.38
2022-10-21T17:52:15.900Z,4.43
2022-10-21T17:54:43.888Z,3.00
2022-10-21T17:57:12.145Z,6.03
2022-10-21T17:59:39.974Z,4.32
2022-10-21T18:02:09.395Z,5.28
2022-10-21T18:04:38.161Z,5.70
2022-10-21T18:07:09.317Z,5.72
2022-10-21T18:09:37.989Z,7.28
2022-10-21T18:12:09.390Z,3.63
2022-10-21T18:14:37.401Z,8.15
2022-10-21T18:17:05.162Z,6.65
2022-10-21T18:19:34.555Z,6.78
2022-10-21T18:22:02.357Z,6.00
2022-10-21T18:24:30.121Z,4.13
2022-10-21T18:26:57.937Z,2.60
2022-10-21T18:29:25.794Z,3.85
2022-10-21T18:31:53.615Z,5.88
2022-10-21T18:34:21.305Z,4.57
2022-10-21T18:39:23.260Z,9.63
2022-10-21T18:41:50.991Z,4.93
2022-10-21T18:44:18.744Z,11.80
2022-10-21T18:46:49.210Z,4.40
2022-10-21T18:49:19.156Z,12.57
2022-10-21T18:51:46.946Z,4.50
2022-10-21T18:54:16.307Z,5.13
2022-10-21T18:56:44.980Z,4.20
2022-10-21T18:59:12.763Z,4.88
2022-10-21T19:01:41.344Z,5.43
2022-10-21T19:04:09.311Z,3.78
2022-10-21T19:06:40.099Z,5.05
2022-10-21T19:09:12.886Z,4.25
2022-10-21T19:11:42.477Z,4.03
2022-10-21T19:14:13.808Z,6.78
2022-10-21T19:16:42.630Z,6.00
2022-10-21T19:19:10.771Z,3.33
2022-10-21T19:21:38.906Z,3.65
2022-10-21T19:24:07.152Z,7.00
2022-10-21T19:26:35.867Z,5.00
2022-10-21T19:29:07.145Z,4.63
2022-10-21T19:31:36.337Z,19.15
2022-10-21T19:34:06.325Z,3.70
2022-10-21T19:36:34.063Z,7.80
2022-10-21T19:39:01.643Z,4.32
2022-10-21T19:41:29.438Z,3.65
2022-10-21T19:43:59.052Z,4.25
2022-10-21T19:46:30.738Z,4.93
2022-10-21T19:48:58.481Z,4.35
2022-10-21T19:51:26.532Z,5.88
2022-10-21T19:53:55.337Z,4.43
2022-10-21T19:56:25.692Z,6.78
2022-10-21T19:58:54.931Z,9.77
2022-10-21T20:01:24.315Z,4.60
2022-10-21T20:03:54.470Z,5.78
2022-10-21T20:06:24.104Z,5.60
2022-10-21T20:08:52.119Z,6.05
2022-10-21T20:11:20.858Z,4.47
2022-10-21T20:13:49.195Z,5.22
2022-10-21T20:16:17.832Z,6.35
2022-10-21T20:18:45.766Z,5.50
2022-10-21T20:21:15.147Z,5.03
2022-10-21T20:23:42.952Z,8.45
2022-10-21T20:26:10.853Z,5.15
2022-10-21T20:28:39.241Z,3.63
2022-10-21T20:31:09.136Z,5.05
2022-10-21T20:33:38.679Z,5.07
2022-10-21T20:36:07.504Z,4.20
2022-10-21T20:38:36.657Z,7.40
2022-10-21T20:41:07.236Z,6.82
2022-10-21T20:43:36.418Z,5.35
2022-10-21T20:46:04.960Z,7.53
2022-10-21T20:48:33.186Z,7.05
2022-10-21T20:51:05.764Z,5.38
2022-10-21T20:53:34.750Z,4.40
2022-10-21T20:56:04.901Z,5.65
2022-10-21T20:58:34.901Z,3.72
2022-10-21T21:01:08.048Z,4.85
2022-10-21T21:03:37.890Z,3.85
2022-10-21T21:06:05.853Z,4.93
2022-10-21T21:08:34.675Z,6.75
2022-10-21T21:11:03.984Z,6.72
2022-10-21T21:13:31.759Z,4.35
2022-10-21T21:16:07.275Z,4.70
2022-10-21T21:18:35.415Z,4.05
2022-10-21T21:21:04.825Z,3.90
2022-10-21T21:23:32.782Z,8.88
2022-10-21T21:26:06.487Z,5.35
2022-10-21T21:28:36.303Z,4.30
2022-10-21T21:31:04.457Z,3.38
2022-10-21T21:33:32.398Z,5.20
2022-10-21T21:36:00.253Z,4.72
2022-10-21T21:38:29.064Z,8.52
2022-10-21T21:40:57.949Z,6.68
2022-10-21T21:43:27.436Z,9.32
2022-10-21T21:45:55.354Z,5.40
2022-10-21T21:48:23.210Z,5.72
2022-10-21T21:50:51.299Z,4.63
2022-10-21T21:53:24.791Z,5.47
2022-10-21T21:55:52.518Z,3.72
2022-10-21T21:58:20.223Z,5.85
2022-10-21T22:00:49.379Z,5.80
2022-10-21T22:03:17.183Z,5.97
2022-10-21T22:05:44.976Z,6.97
2022-10-21T22:08:12.824Z,5.55
2022-10-21T22:10:40.575Z,6.70
2022-10-21T22:13:08.574Z,5.57
2022-10-21T22:15:47.741Z,9.52
2022-10-21T22:18:17.478Z,3.92
2022-10-21T22:20:46.439Z,4.10
2022-10-21T22:23:14.120Z,6.38
2022-10-21T22:25:41.919Z,5.45
2022-10-21T22:28:09.646Z,6.15
2022-10-21T22:30:37.410Z,5.40
2022-10-21T22:33:05.251Z,3.35
2022-10-21T22:35:34.376Z,6.95
2022-10-21T22:38:02.126Z,4.22
2022-10-21T22:40:29.841Z,7.72
2022-10-21T22:42:57.602Z,3.88
2022-10-21T22:45:25.496Z,6.63
2022-10-21T22:47:53.257Z,4.00
2022-10-21T22:50:21.002Z,5.30
2022-10-21T22:52:50.135Z,7.10
2022-10-21T22:55:17.995Z,7.32
2022-10-21T22:57:45.775Z,4.13
2022-10-21T23:00:14.645Z,4.75
2022-10-21T23:02:42.498Z,8.90
2022-10-21T23:05:10.549Z,4.57
2022-10-21T23:07:38.331Z,6.60
2022-10-21T23:10:08.563Z,4.30
2022-10-21T23:12:36.444Z,8.05
2022-10-21T23:15:05.594Z,7.90
2022-10-21T23:17:33.374Z,6.47
2022-10-21T23:20:01.328Z,5.43
2022-10-21T23:22:29.088Z,15.43
2022-10-21T23:24:56.842Z,5.47
2022-10-21T23:27:27.210Z,6.20
2022-10-21T23:29:55.086Z,5.05
2022-10-21T23:32:22.888Z,7.10
2022-10-21T23:34:50.726Z,3.55
2022-10-21T23:39:51.242Z,11.70
2022-10-21T23:42:18.985Z,4.05
2022-10-21T23:44:48.090Z,7.00
2022-10-21T23:47:15.934Z,5.95
2022-10-21T23:49:43.707Z,4.15
2022-10-21T23:52:11.510Z,4.93
2022-10-21T23:54:39.258Z,7.88
2022-10-21T23:57:07.047Z,3.45
2022-10-21T23:59:35.872Z,6.85
